Time;durP1;ratioP1;P1;durP2;ratioP2;P2;SDS_P1;SDS_P2;PMS_P1;PMS_P2;Temp;Humidity;BMP_temperature;BMP_pressure;BME280_temperature;BME280_humidity;BME280_pressure;Samples;Min_cycle;Max_cycle;Signal;HPM_P1;HPM_P2
2023/12/10 00:00:30;;;;;;;7.20;2.30;;;;;;;10.47;100.00;96986.06;4139241;28;20631;-87
2023/12/10 00:02:34;;;;;;;7.20;1.70;;;;;;;10.47;100.00;96995.66;4142452;28;20721;-87
2023/12/10 00:04:38;;;;;;;10.53;2.60;;;;;;;10.48;100.00;97010.38;4143858;28;20297;-87
2023/12/10 00:06:42;;;;;;;12.40;2.60;;;;;;;10.46;100.00;97017.47;4140563;28;21233;-87
2023/12/10 00:08:45;;;;;;;10.47;2.83;;;;;;;10.46;100.00;97031.34;4142443;28;20270;-86
2023/12/10 00:10:50;;;;;;;12.27;2.22;;;;;;;10.48;100.00;97028.63;4136521;28;20622;-86
2023/12/10 00:12:52;;;;;;;11.33;2.13;;;;;;;10.50;100.00;97024.91;4137970;28;20242;-86
2023/12/10 00:14:57;;;;;;;9.30;2.43;;;;;;;10.54;100.00;97022.84;4155100;28;20708;-86
2023/12/10 00:17:01;;;;;;;8.18;2.10;;;;;;;10.51;100.00;97030.97;4141804;28;20619;-87
2023/12/10 00:19:04;;;;;;;15.23;2.30;;;;;;;10.53;100.00;97036.84;4144934;28;20212;-86
2023/12/10 00:21:07;;;;;;;6.30;1.80;;;;;;;10.54;99.73;97044.56;4140732;28;20634;-86
2023/12/10 00:23:11;;;;;;;9.60;2.30;;;;;;;10.54;99.80;97061.94;4141577;28;20622;-86
2023/12/10 00:25:15;;;;;;;12.30;2.40;;;;;;;10.50;100.00;97050.16;4121242;28;20642;-87
2023/12/10 00:27:19;;;;;;;13.00;2.70;;;;;;;10.51;100.00;97051.81;4141675;28;20242;-87
2023/12/10 00:29:25;;;;;;;12.73;2.90;;;;;;;10.53;100.00;97065.53;4126357;28;20629;-88
2023/12/10 00:31:27;;;;;;;13.97;3.13;;;;;;;10.50;99.64;97073.59;4133823;28;20985;-87
2023/12/10 00:33:31;;;;;;;12.37;2.33;;;;;;;10.50;98.76;97086.66;4139614;28;20661;-84
2023/12/10 00:35:35;;;;;;;10.87;2.10;;;;;;;10.51;100.00;97090.91;4139266;28;20713;-86
2023/12/10 00:37:38;;;;;;;9.70;2.73;;;;;;;10.51;100.00;97089.13;4142298;28;20632;-87
2023/12/10 00:39:41;;;;;;;11.00;2.40;;;;;;;10.53;100.00;97091.59;4140224;28;20721;-87
2023/12/10 00:41:46;;;;;;;9.70;2.80;;;;;;;10.57;100.00;97100.78;4139278;28;20625;-87
2023/12/10 00:43:50;;;;;;;14.60;3.00;;;;;;;10.56;98.86;97091.34;4141994;28;20669;-86
2023/12/10 00:45:53;;;;;;;14.83;3.00;;;;;;;10.60;98.09;97101.38;4138960;28;21168;-86
2023/12/10 00:47:56;;;;;;;16.23;3.07;;;;;;;10.60;97.72;97105.75;4123567;28;20627;-87
2023/12/10 00:50:00;;;;;;;18.13;3.23;;;;;;;10.61;98.85;97099.59;4144600;28;20634;-85
2023/12/10 00:52:03;;;;;;;18.10;2.73;;;;;;;10.61;97.62;97105.63;4152212;28;20662;-85
2023/12/10 00:54:07;;;;;;;14.70;3.13;;;;;;;10.58;98.57;97105.06;4148322;28;20638;-86
2023/12/10 00:56:10;;;;;;;12.67;4.10;;;;;;;10.58;97.31;97111.09;4139661;28;21203;-86
2023/12/10 00:58:14;;;;;;;13.70;2.77;;;;;;;10.59;98.39;97117.97;4138597;28;21085;-85
2023/12/10 01:00:19;;;;;;;10.10;3.00;;;;;;;10.58;97.15;97125.94;4155360;28;21038;-86
2023/12/10 01:02:23;;;;;;;12.30;3.23;;;;;;;10.57;97.37;97135.53;4138810;28;21002;-87
2023/12/10 01:04:27;;;;;;;15.43;3.23;;;;;;;10.56;98.09;97139.09;4152050;28;21222;-87
2023/12/10 01:06:30;;;;;;;14.37;4.43;;;;;;;10.58;96.98;97131.13;4141067;28;20614;-86
2023/12/10 01:08:33;;;;;;;18.60;3.03;;;;;;;10.61;97.32;97157.78;4156688;28;21206;-87
2023/12/10 01:10:37;;;;;;;16.20;3.50;;;;;;;10.63;96.58;97137.63;4138271;28;20622;-86
2023/12/10 01:12:40;;;;;;;20.50;3.50;;;;;;;10.63;95.51;97157.63;4127577;28;20659;-87
2023/12/10 01:14:44;;;;;;;13.53;3.17;;;;;;;10.63;95.77;97166.31;4144125;28;21011;-87
2023/12/10 01:16:49;;;;;;;14.90;2.53;;;;;;;10.64;96.09;97161.91;4140137;28;20637;-86
2023/12/10 01:18:53;;;;;;;16.80;4.10;;;;;;;10.66;96.08;97173.03;4144484;28;20611;-87
2023/12/10 01:20:56;;;;;;;15.63;3.60;;;;;;;10.63;96.13;97186.31;4137684;28;20627;-87
2023/12/10 01:23:04;;;;;;;18.00;3.70;;;;;;;10.65;96.36;97189.66;4156111;28;21244;-87
2023/12/10 01:25:08;;;;;;;18.30;3.47;;;;;;;10.62;94.87;97189.91;4138731;28;20631;-87
2023/12/10 01:27:11;;;;;;;14.63;2.90;;;;;;;10.61;96.18;97193.47;4139743;28;20212;-87
2023/12/10 01:29:15;;;;;;;19.40;3.50;;;;;;;10.60;95.73;97191.78;4152691;28;20675;-87
2023/12/10 01:31:19;;;;;;;17.40;3.30;;;;;;;10.63;94.82;97212.41;4150524;28;21245;-87
2023/12/10 01:33:23;;;;;;;18.83;4.07;;;;;;;10.64;94.94;97209.66;4145546;28;20667;-87
2023/12/10 01:35:26;;;;;;;21.67;4.05;;;;;;;10.59;94.16;97222.25;4141774;28;20212;-87
2023/12/10 01:37:30;;;;;;;16.10;3.78;;;;;;;10.58;95.64;97228.41;4142308;28;20200;-87
2023/12/10 01:39:34;;;;;;;18.93;3.80;;;;;;;10.59;94.49;97239.69;4127178;28;20243;-87
2023/12/10 01:41:37;;;;;;;9.63;3.50;;;;;;;10.62;95.30;97239.44;4143383;28;20662;-87
2023/12/10 01:43:41;;;;;;;18.03;3.80;;;;;;;10.57;93.89;97239.81;4142881;28;20618;-87
2023/12/10 01:45:48;;;;;;;16.23;4.00;;;;;;;10.58;93.69;97251.06;4143010;28;20676;-87
2023/12/10 01:47:52;;;;;;;19.53;3.97;;;;;;;10.57;93.96;97255.47;4140863;28;20672;-87
2023/12/10 01:49:57;;;;;;;17.20;3.87;;;;;;;10.56;93.28;97245.97;4128019;28;20682;-87
2023/12/10 01:52:00;;;;;;;15.83;3.30;;;;;;;10.59;93.38;97256.16;4144515;28;20655;-87
2023/12/10 01:54:04;;;;;;;19.20;4.30;;;;;;;10.62;94.34;97258.50;4143013;28;20673;-87
2023/12/10 01:56:09;;;;;;;15.75;3.22;;;;;;;10.60;93.67;97254.38;4142909;28;20642;-87
2023/12/10 01:58:14;;;;;;;16.03;3.33;;;;;;;10.63;94.28;97261.94;4142419;28;20222;-87
2023/12/10 02:00:18;;;;;;;18.53;4.60;;;;;;;10.63;93.02;97260.19;4144376;28;20642;-87
2023/12/10 02:02:22;;;;;;;18.23;3.70;;;;;;;10.60;92.48;97262.19;4141945;28;21206;-87
2023/12/10 02:04:26;;;;;;;16.48;4.20;;;;;;;10.58;92.77;97270.13;4145261;28;20638;-87
2023/12/10 02:06:31;;;;;;;16.03;4.70;;;;;;;10.60;92.44;97285.66;4138483;28;20319;-87
2023/12/10 02:08:34;;;;;;;19.10;4.07;;;;;;;10.63;92.58;97288.00;4138338;28;20661;-87
2023/12/10 02:10:37;;;;;;;19.53;4.40;;;;;;;10.63;93.07;97291.47;4126147;28;20726;-86
2023/12/10 02:12:41;;;;;;;24.63;3.37;;;;;;;10.64;92.47;97293.09;4140727;28;20662;-87
2023/12/10 02:14:46;;;;;;;17.57;4.20;;;;;;;10.65;92.44;97289.56;4122541;28;20648;-88
2023/12/10 02:16:50;;;;;;;20.17;4.07;;;;;;;10.68;92.82;97291.09;4157474;28;20629;-87
2023/12/10 02:18:54;;;;;;;20.07;4.10;;;;;;;10.67;90.84;97292.03;4143366;28;20633;-87
2023/12/10 02:20:56;;;;;;;15.33;3.73;;;;;;;10.70;92.18;97297.00;4142482;28;20614;-87
2023/12/10 02:23:04;;;;;;;22.10;3.73;;;;;;;10.70;91.04;97299.59;4142066;28;20622;-87
2023/12/10 02:25:09;;;;;;;15.10;3.20;;;;;;;10.68;91.29;97293.69;4142303;28;20738;-87
2023/12/10 02:27:14;;;;;;;14.80;4.13;;;;;;;10.70;91.15;97297.00;4159335;28;21245;-87
2023/12/10 02:29:18;;;;;;;19.70;4.10;;;;;;;10.72;90.60;97292.47;4143201;28;21071;-88
2023/12/10 02:31:21;;;;;;;21.07;3.53;;;;;;;10.77;89.93;97282.53;4143272;28;20762;-87
2023/12/10 02:33:25;;;;;;;30.73;4.80;;;;;;;10.74;90.44;97294.03;4143141;28;20700;-87
2023/12/10 02:35:30;;;;;;;19.77;3.67;;;;;;;10.75;90.26;97305.28;4141187;28;20639;-87
2023/12/10 02:37:32;;;;;;;12.57;3.30;;;;;;;10.69;91.75;97310.97;4138424;28;20692;-87
2023/12/10 02:39:36;;;;;;;14.52;4.78;;;;;;;10.57;90.55;97325.00;4138980;28;20657;-86
2023/12/10 02:41:40;;;;;;;8.93;2.13;;;;;;;10.51;93.00;97322.91;4146800;28;20892;-87
2023/12/10 02:43:45;;;;;;;13.43;2.60;;;;;;;10.34;94.10;97332.09;4141460;28;21390;-87
2023/12/10 02:45:50;;;;;;;5.97;1.50;;;;;;;10.19;94.43;97337.66;4142059;28;20630;-87
2023/12/10 02:47:53;;;;;;;6.97;1.40;;;;;;;10.09;94.72;97347.16;4127136;28;21237;-87
2023/12/10 02:49:57;;;;;;;7.57;2.30;;;;;;;9.96;95.46;97343.03;4139167;28;20256;-87
2023/12/10 02:52:01;;;;;;;7.30;1.60;;;;;;;9.78;96.91;97341.00;4117803;28;20231;-87
2023/12/10 02:54:05;;;;;;;3.40;1.15;;;;;;;9.70;98.12;97349.38;4115338;28;20742;-87
2023/12/10 02:56:10;;;;;;;5.35;1.02;;;;;;;9.67;97.93;97359.22;4160551;28;20634;-87
2023/12/10 02:58:13;;;;;;;3.88;1.10;;;;;;;9.50;98.85;97342.28;4136983;28;20635;-87
2023/12/10 03:00:18;;;;;;;5.60;0.85;;;;;;;9.45;99.15;97361.78;4160226;28;20833;-88
2023/12/10 03:02:23;;;;;;;6.82;1.65;;;;;;;9.38;99.15;97361.41;4122201;28;20223;-87
2023/12/10 03:04:27;;;;;;;5.03;1.30;;;;;;;9.26;99.20;97364.13;4137652;28;20212;-87
2023/12/10 03:06:30;;;;;;;4.50;1.20;;;;;;;9.22;100.00;97367.88;4135882;28;20222;-87
2023/12/10 03:08:34;;;;;;;2.92;0.80;;;;;;;9.20;100.00;97374.97;4130186;28;20630;-89
2023/12/10 03:10:38;;;;;;;5.85;1.00;;;;;;;9.23;100.00;97377.34;4146034;28;20199;-89
2023/12/10 03:12:41;;;;;;;2.75;1.00;;;;;;;9.23;100.00;97385.16;4146248;28;20608;-89
2023/12/10 03:14:45;;;;;;;3.92;1.30;;;;;;;9.23;100.00;97381.72;4146156;28;20298;-89
2023/12/10 03:16:50;;;;;;;6.30;1.55;;;;;;;9.26;100.00;97395.34;4160711;28;20207;-89
2023/12/10 03:18:53;;;;;;;4.27;1.10;;;;;;;9.22;99.99;97383.50;4139714;28;20259;-88
2023/12/10 03:20:58;;;;;;;8.57;1.83;;;;;;;9.23;100.00;97392.13;4137481;28;20993;-89
2023/12/10 03:23:01;;;;;;;8.35;1.50;;;;;;;9.27;99.94;97390.97;4143345;28;20203;-89
2023/12/10 03:25:06;;;;;;;5.82;1.73;;;;;;;9.24;99.85;97397.19;4146544;28;20190;-89
2023/12/10 03:27:10;;;;;;;4.93;1.60;;;;;;;9.27;99.35;97393.56;4145925;28;20662;-89
2023/12/10 03:29:15;;;;;;;7.05;1.75;;;;;;;9.29;99.85;97397.72;4147259;28;20297;-89
2023/12/10 03:31:18;;;;;;;5.40;1.63;;;;;;;9.30;99.90;97401.94;4126005;28;20363;-89
2023/12/10 03:33:22;;;;;;;9.02;1.63;;;;;;;9.28;99.54;97398.66;4144478;28;20242;-89
2023/12/10 03:35:26;;;;;;;9.70;1.70;;;;;;;9.29;99.51;97394.25;4127374;28;20211;-89
2023/12/10 03:37:30;;;;;;;7.05;1.80;;;;;;;9.26;99.25;97390.13;4145087;28;20199;-89
2023/12/10 03:39:33;;;;;;;7.15;2.30;;;;;;;9.26;99.53;97400.53;4145152;28;20224;-89
2023/12/10 03:41:36;;;;;;;10.75;2.08;;;;;;;9.25;99.33;97404.06;4144277;28;20206;-89
2023/12/10 03:43:42;;;;;;;6.95;1.48;;;;;;;9.25;99.26;97409.28;4145597;28;20851;-89
2023/12/10 03:45:45;;;;;;;7.28;1.85;;;;;;;9.30;99.36;97421.94;4140414;28;20684;-89
2023/12/10 03:47:49;;;;;;;10.10;2.70;;;;;;;9.31;99.30;97424.44;4142429;28;20706;-89
2023/12/10 03:49:54;;;;;;;7.87;2.27;;;;;;;9.34;99.43;97424.22;4154848;28;20641;-89
2023/12/10 03:51:58;;;;;;;11.98;1.95;;;;;;;9.36;99.58;97418.91;4141589;28;20664;-89
2023/12/10 03:54:02;;;;;;;15.48;2.88;;;;;;;9.40;99.77;97428.97;4160122;28;20222;-89
2023/12/10 03:56:06;;;;;;;11.27;2.25;;;;;;;9.40;98.50;97429.78;4144039;28;20208;-89
2023/12/10 03:58:11;;;;;;;11.85;2.80;;;;;;;9.40;97.91;97434.16;4138707;28;20283;-89
2023/12/10 04:00:14;;;;;;;9.63;3.03;;;;;;;9.46;98.51;97438.91;4145724;28;20601;-89
2023/12/10 04:02:17;;;;;;;9.20;2.20;;;;;;;9.47;98.06;97445.75;4140338;28;20209;-90
2023/12/10 04:04:20;;;;;;;12.00;2.65;;;;;;;9.45;97.79;97450.25;4145243;28;20696;-90
2023/12/10 04:06:26;;;;;;;10.73;2.40;;;;;;;9.46;98.10;97450.16;4139982;28;20320;-90
2023/12/10 04:08:30;;;;;;;7.97;2.20;;;;;;;9.46;97.54;97455.34;4144547;28;20203;-89
2023/12/10 04:10:34;;;;;;;11.93;2.40;;;;;;;9.47;96.84;97444.00;4146947;28;20219;-89
2023/12/10 04:12:37;;;;;;;14.73;2.75;;;;;;;9.49;96.72;97446.50;4145742;28;20971;-89
2023/12/10 04:14:41;;;;;;;15.18;3.03;;;;;;;9.52;96.75;97443.66;4160924;28;20219;-90
2023/12/10 04:16:45;;;;;;;16.75;3.10;;;;;;;9.55;96.48;97454.66;4147864;28;20228;-90
2023/12/10 04:18:48;;;;;;;9.68;2.40;;;;;;;9.57;96.04;97452.78;4138487;28;20259;-89
2023/12/10 04:20:53;;;;;;;12.68;2.47;;;;;;;9.59;95.85;97450.06;4144936;28;20601;-90
2023/12/10 04:22:58;;;;;;;11.88;2.30;;;;;;;9.58;96.02;97451.84;4144863;28;20202;-90
2023/12/10 04:25:05;;;;;;;12.45;2.30;;;;;;;9.58;94.07;97456.22;4140275;28;20323;-89
2023/12/10 04:27:09;;;;;;;12.65;2.50;;;;;;;9.51;93.05;97462.81;4145991;28;20215;-88
2023/12/10 04:29:12;;;;;;;12.73;2.67;;;;;;;9.58;92.86;97453.63;4141352;28;20200;-87
2023/12/10 04:31:16;;;;;;;8.95;2.42;;;;;;;9.59;92.89;97442.25;4123826;28;20273;-87
2023/12/10 04:33:20;;;;;;;10.73;2.58;;;;;;;9.60;92.78;97467.34;4143080;28;20203;-87
2023/12/10 04:35:24;;;;;;;9.52;2.80;;;;;;;9.64;91.64;97477.41;4126082;28;20239;-87
2023/12/10 04:37:28;;;;;;;12.55;2.90;;;;;;;9.67;91.82;97477.19;4128203;28;20231;-87
2023/12/10 04:39:33;;;;;;;9.63;2.25;;;;;;;9.71;92.04;97481.25;4143704;28;20302;-87
2023/12/10 04:41:36;;;;;;;16.67;3.20;;;;;;;9.72;92.01;97492.47;4143326;28;20202;-88
2023/12/10 04:43:40;;;;;;;9.82;2.10;;;;;;;9.73;91.42;97496.75;4126355;28;20212;-87
2023/12/10 04:45:44;;;;;;;14.00;2.60;;;;;;;9.76;91.25;97499.09;4155155;28;20618;-86
2023/12/10 04:47:48;;;;;;;12.30;2.80;;;;;;;9.69;91.54;97496.13;4142376;28;20206;-87
2023/12/10 04:49:51;;;;;;;11.90;2.50;;;;;;;9.73;91.41;97502.78;4152926;28;20625;-87
2023/12/10 04:51:55;;;;;;;9.10;2.40;;;;;;;9.77;90.87;97508.56;4156787;28;20238;-87
2023/12/10 04:54:02;;;;;;;10.65;2.40;;;;;;;9.80;91.06;97500.53;4158644;28;20265;-87
2023/12/10 04:56:09;;;;;;;16.65;3.45;;;;;;;9.80;91.89;97497.94;4140927;28;20219;-88
2023/12/10 04:58:13;;;;;;;12.30;2.30;;;;;;;9.79;91.87;97506.66;4143151;28;20562;-87
2023/12/10 05:00:17;;;;;;;10.37;2.57;;;;;;;9.78;91.22;97515.44;4143131;28;21313;-87
2023/12/10 05:02:22;;;;;;;12.38;2.90;;;;;;;9.81;91.88;97518.66;4136608;28;20753;-88
2023/12/10 05:04:25;;;;;;;11.10;2.40;;;;;;;9.81;90.48;97503.03;4135442;28;20207;-87
2023/12/10 05:06:30;;;;;;;14.27;2.47;;;;;;;9.79;89.89;97514.47;4146029;28;20210;-87
2023/12/10 05:08:34;;;;;;;9.55;2.38;;;;;;;9.83;90.54;97523.75;4144130;28;20207;-87
2023/12/10 05:10:36;;;;;;;13.45;2.47;;;;;;;9.80;90.58;97521.38;4159650;28;20207;-87
2023/12/10 05:12:41;;;;;;;6.28;1.95;;;;;;;9.80;90.05;97531.78;4127659;28;20287;-87
2023/12/10 05:14:44;;;;;;;12.97;2.47;;;;;;;9.81;90.61;97530.84;4142692;28;20230;-87
2023/12/10 05:16:48;;;;;;;11.60;2.50;;;;;;;9.83;89.47;97526.34;4144390;28;21033;-88
2023/12/10 05:18:52;;;;;;;9.90;2.10;;;;;;;9.78;88.94;97531.06;4127481;28;20576;-86
2023/12/10 05:20:56;;;;;;;10.50;2.00;;;;;;;9.76;89.48;97528.59;4127550;28;20220;-87
2023/12/10 05:23:00;;;;;;;14.02;2.60;;;;;;;9.73;89.13;97534.00;4141267;28;20207;-87
2023/12/10 05:25:05;;;;;;;10.80;3.08;;;;;;;9.79;89.55;97554.41;4142614;28;20294;-87
2023/12/10 05:27:09;;;;;;;8.77;1.95;;;;;;;9.86;88.94;97539.97;4144001;28;20231;-87
2023/12/10 05:29:15;;;;;;;15.45;2.80;;;;;;;9.88;88.34;97533.69;4145943;28;20195;-87
2023/12/10 05:31:19;;;;;;;9.90;2.67;;;;;;;9.82;87.36;97542.91;4123473;28;20219;-87
2023/12/10 05:33:22;;;;;;;10.15;2.70;;;;;;;9.85;87.25;97541.75;4143880;28;20297;-86
2023/12/10 05:35:25;;;;;;;16.23;2.65;;;;;;;9.84;87.38;97551.44;4142225;28;20237;-87
2023/12/10 05:37:29;;;;;;;10.50;3.05;;;;;;;9.84;87.01;97545.28;4127000;28;20732;-87
2023/12/10 05:39:33;;;;;;;12.33;2.73;;;;;;;9.85;88.02;97561.75;4131359;28;20585;-87
2023/12/10 05:41:36;;;;;;;9.02;1.80;;;;;;;9.84;86.78;97550.50;4139153;28;20638;-87
2023/12/10 05:43:39;;;;;;;8.85;2.50;;;;;;;9.81;86.85;97562.91;4144681;28;20705;-87
2023/12/10 05:45:44;;;;;;;8.90;2.38;;;;;;;9.83;86.44;97558.41;4142979;28;20761;-87
2023/12/10 05:47:47;;;;;;;11.82;1.95;;;;;;;9.89;85.66;97563.16;4146048;28;20207;-87
2023/12/10 05:49:50;;;;;;;14.23;2.80;;;;;;;9.90;86.80;97567.44;4145153;28;20214;-87
2023/12/10 05:51:54;;;;;;;12.10;1.85;;;;;;;9.93;85.80;97565.47;4158599;28;20233;-87
2023/12/10 05:53:57;;;;;;;11.97;2.60;;;;;;;9.95;86.11;97565.34;4157237;28;20277;-87
2023/12/10 05:56:00;;;;;;;8.77;2.75;;;;;;;9.91;85.42;97559.53;4140002;28;20718;-87
2023/12/10 05:58:05;;;;;;;12.57;3.15;;;;;;;9.91;85.54;97562.13;4141301;28;20239;-87
2023/12/10 06:00:09;;;;;;;8.73;2.55;;;;;;;9.93;84.71;97565.47;4120297;28;20245;-87
2023/12/10 06:02:14;;;;;;;8.57;1.80;;;;;;;9.93;84.70;97570.69;4153846;28;20673;-87
2023/12/10 06:04:17;;;;;;;12.88;2.15;;;;;;;9.94;84.21;97579.34;4142854;28;20868;-87
2023/12/10 06:06:20;;;;;;;13.85;2.47;;;;;;;9.94;85.05;97577.56;4124039;28;20266;-87
2023/12/10 06:08:24;;;;;;;12.32;2.50;;;;;;;9.93;83.80;97586.31;4141390;28;20303;-87
2023/12/10 06:10:28;;;;;;;8.57;2.47;;;;;;;9.94;83.62;97582.75;4144503;28;20202;-87
2023/12/10 06:12:31;;;;;;;11.52;2.20;;;;;;;9.96;83.54;97590.47;4137086;28;20642;-86
2023/12/10 06:14:35;;;;;;;10.30;2.33;;;;;;;9.97;83.12;97599.94;4123191;28;20201;-87
2023/12/10 06:16:38;;;;;;;9.32;1.92;;;;;;;9.99;83.60;97598.88;4134880;28;22218;-86
2023/12/10 06:18:44;;;;;;;8.97;1.80;;;;;;;10.01;82.96;97598.75;4142109;28;20212;-87
2023/12/10 06:20:47;;;;;;;7.15;2.00;;;;;;;10.04;83.00;97615.03;4122416;28;20662;-86
2023/12/10 06:22:51;;;;;;;6.07;2.40;;;;;;;10.01;82.24;97625.66;4138582;28;20199;-86
2023/12/10 06:24:54;;;;;;;12.80;2.50;;;;;;;9.99;83.25;97632.75;4139775;28;20675;-86
2023/12/10 06:26:58;;;;;;;9.25;2.03;;;;;;;10.00;83.20;97638.81;4140573;28;20204;-87
2023/12/10 06:29:01;;;;;;;7.22;1.73;;;;;;;9.98;82.49;97638.06;4142352;28;20211;-86
2023/12/10 06:31:05;;;;;;;10.88;2.70;;;;;;;10.03;82.36;97644.59;4124911;28;20196;-87
2023/12/10 06:33:08;;;;;;;8.32;1.88;;;;;;;10.01;82.45;97643.91;4143885;28;20270;-87
2023/12/10 06:35:12;;;;;;;7.53;1.90;;;;;;;10.03;83.09;97649.81;4142886;28;20238;-87
2023/12/10 06:37:16;;;;;;;8.23;1.80;;;;;;;10.04;82.95;97648.03;4141861;28;20250;-86
2023/12/10 06:39:19;;;;;;;8.80;2.63;;;;;;;10.01;81.96;97649.09;4135743;28;20626;-87
2023/12/10 06:41:23;;;;;;;13.63;2.40;;;;;;;10.03;82.79;97660.25;4141306;28;21262;-87
2023/12/10 06:43:28;;;;;;;14.07;2.10;;;;;;;10.07;81.69;97661.69;4143180;28;20632;-87
2023/12/10 06:45:31;;;;;;;14.00;2.30;;;;;;;10.01;82.08;97650.88;4123922;28;20200;-87
2023/12/10 06:47:35;;;;;;;11.20;2.60;;;;;;;10.03;81.34;97649.00;4142383;28;20210;-87
2023/12/10 06:49:37;;;;;;;8.37;1.97;;;;;;;10.02;81.75;97649.94;4142608;28;20708;-87
2023/12/10 06:51:42;;;;;;;7.10;2.03;;;;;;;10.13;81.14;97652.56;4127226;28;20769;-86
2023/12/10 06:53:46;;;;;;;10.98;2.15;;;;;;;10.08;80.59;97649.47;4135544;28;20206;-87
2023/12/10 06:55:49;;;;;;;10.00;2.20;;;;;;;10.01;81.34;97656.06;4143361;28;20230;-87
2023/12/10 06:57:53;;;;;;;10.30;2.13;;;;;;;9.95;81.11;97649.56;4121140;28;20643;-87
2023/12/10 06:59:56;;;;;;;11.30;2.05;;;;;;;9.98;81.44;97664.97;4136850;28;20662;-87
2023/12/10 07:01:59;;;;;;;8.00;2.40;;;;;;;9.98;81.25;97675.38;4122281;28;20212;-89
2023/12/10 07:04:03;;;;;;;7.90;2.23;;;;;;;9.99;80.74;97678.81;4142437;28;20745;-89
2023/12/10 07:06:06;;;;;;;9.60;1.87;;;;;;;10.00;80.91;97670.06;4157245;28;20618;-89
2023/12/10 07:08:11;;;;;;;12.33;2.97;;;;;;;9.92;81.07;97667.97;4150957;28;21015;-89
2023/12/10 07:10:16;;;;;;;9.00;2.47;;;;;;;9.97;80.46;97673.72;4139719;28;20615;-89
2023/12/10 07:12:19;;;;;;;7.82;1.70;;;;;;;9.90;80.76;97684.66;4135121;28;20208;-89
2023/12/10 07:14:22;;;;;;;7.95;1.60;;;;;;;9.88;80.80;97676.94;4142869;28;20254;-90
2023/12/10 07:16:26;;;;;;;13.43;2.33;;;;;;;9.88;80.64;97673.53;4140703;28;20262;-89
2023/12/10 07:18:29;;;;;;;9.03;2.00;;;;;;;9.89;80.94;97689.03;4141499;28;20684;-89
2023/12/10 07:20:33;;;;;;;8.48;1.90;;;;;;;9.87;81.46;97690.91;4140680;28;20626;-89
2023/12/10 07:22:36;;;;;;;9.68;2.28;;;;;;;9.87;81.06;97690.91;4126256;28;20212;-89
2023/12/10 07:24:41;;;;;;;9.98;2.42;;;;;;;9.90;81.43;97695.06;4153971;28;25037;-89
2023/12/10 07:26:44;;;;;;;8.05;2.13;;;;;;;9.86;81.14;97697.06;4142952;28;20211;-89
2023/12/10 07:28:48;;;;;;;13.15;2.20;;;;;;;9.84;81.45;97694.69;4143281;28;20243;-89
2023/12/10 07:30:51;;;;;;;11.02;1.88;;;;;;;9.87;81.62;97711.72;4133631;28;20208;-89
2023/12/10 07:32:56;;;;;;;14.38;2.60;;;;;;;9.87;81.85;97696.09;4152222;28;20297;-89
2023/12/10 07:35:00;;;;;;;6.97;1.57;;;;;;;9.98;81.89;97706.63;4142805;28;20761;-89
2023/12/10 07:37:03;;;;;;;7.97;2.20;;;;;;;9.94;81.66;97694.78;4158784;28;20653;-89
2023/12/10 07:39:07;;;;;;;5.30;1.73;;;;;;;9.92;81.98;97699.22;4154205;28;20653;-89
2023/12/10 07:41:13;;;;;;;7.55;1.95;;;;;;;9.92;81.24;97693.16;4139108;28;20642;-88
2023/12/10 07:43:16;;;;;;;12.88;2.45;;;;;;;9.96;81.68;97698.09;4155045;28;20236;-89
2023/12/10 07:45:19;;;;;;;6.32;1.77;;;;;;;9.96;81.82;97695.47;4120532;28;20209;-89
2023/12/10 07:47:23;;;;;;;7.88;2.47;;;;;;;9.93;82.05;97695.69;4142101;28;20204;-89
2023/12/10 07:49:26;;;;;;;9.10;2.35;;;;;;;9.96;82.06;97708.50;4154030;28;22404;-89
2023/12/10 07:51:30;;;;;;;10.47;2.10;;;;;;;10.01;81.73;97714.25;4141860;28;20219;-90
2023/12/10 07:53:33;;;;;;;12.37;2.03;;;;;;;9.97;81.92;97697.16;4142370;28;20633;-89
2023/12/10 07:55:37;;;;;;;7.70;2.20;;;;;;;9.97;82.09;97706.75;4119125;28;20630;-89
2023/12/10 07:57:40;;;;;;;8.13;1.60;;;;;;;9.98;81.65;97719.66;4125736;28;20231;-89
2023/12/10 07:59:44;;;;;;;9.27;2.15;;;;;;;10.01;82.23;97719.44;4155024;28;20625;-89
2023/12/10 08:01:47;;;;;;;10.60;1.88;;;;;;;10.01;81.93;97719.44;4143780;28;20744;-90
2023/12/10 08:03:51;;;;;;;13.93;3.50;;;;;;;10.04;82.75;97716.63;4142120;28;20204;-89
2023/12/10 08:05:55;;;;;;;10.40;2.57;;;;;;;10.04;81.87;97724.44;4144476;28;21254;-89
2023/12/10 08:08:02;;;;;;;7.50;2.90;;;;;;;10.05;81.67;97728.69;4144065;28;20634;-89
2023/12/10 08:10:07;;;;;;;10.73;2.47;;;;;;;10.12;82.45;97736.91;4154560;28;20624;-88
2023/12/10 08:12:10;;;;;;;10.87;2.13;;;;;;;10.14;80.97;97743.66;4143906;28;20203;-87
2023/12/10 08:14:16;;;;;;;8.00;2.20;;;;;;;10.16;82.10;97749.56;4122395;28;25145;-87
2023/12/10 08:16:20;;;;;;;7.53;2.15;;;;;;;10.19;81.77;97753.75;4143765;28;20713;-87
2023/12/10 08:18:24;;;;;;;6.43;1.92;;;;;;;10.22;81.00;97758.75;4144414;28;20207;-89
2023/12/10 08:20:28;;;;;;;6.90;2.60;;;;;;;10.27;81.81;97747.06;4126275;28;20239;-87
2023/12/10 08:22:32;;;;;;;11.95;2.38;;;;;;;10.29;81.15;97746.94;4156802;28;20634;-86
2023/12/10 08:24:35;;;;;;;7.68;2.10;;;;;;;10.30;81.21;97746.81;4140356;28;20234;-87
2023/12/10 08:26:37;;;;;;;8.80;1.85;;;;;;;10.34;81.10;97750.84;4145436;28;20211;-86
2023/12/10 08:28:41;;;;;;;9.87;2.30;;;;;;;10.35;81.50;97758.56;4125266;28;20203;-87
2023/12/10 08:30:46;;;;;;;8.23;1.90;;;;;;;10.35;80.24;97757.75;4140601;28;21226;-85
2023/12/10 08:32:50;;;;;;;7.40;2.00;;;;;;;10.36;81.03;97759.41;4137853;28;21235;-85
2023/12/10 08:34:53;;;;;;;7.60;2.15;;;;;;;10.42;80.03;97756.38;4141108;28;20307;-87
2023/12/10 08:36:56;;;;;;;12.20;2.10;;;;;;;10.39;81.36;97752.19;4124699;28;20323;-86
2023/12/10 08:39:00;;;;;;;15.17;2.47;;;;;;;10.38;81.40;97760.13;4140066;28;20633;-86
2023/12/10 08:41:03;;;;;;;10.70;2.70;;;;;;;10.35;81.70;97755.13;4139433;28;20610;-86
2023/12/10 08:43:07;;;;;;;10.53;1.97;;;;;;;10.36;80.33;97765.44;4138452;28;20661;-84
2023/12/10 08:45:11;;;;;;;15.00;2.40;;;;;;;10.33;81.33;97773.50;4143240;28;20625;-90
2023/12/10 08:47:16;;;;;;;10.83;2.63;;;;;;;10.35;81.15;97779.41;4155148;28;20626;-87
2023/12/10 08:49:19;;;;;;;12.20;2.93;;;;;;;10.39;81.08;97778.25;4159490;28;20633;-86
2023/12/10 08:51:23;;;;;;;10.90;1.93;;;;;;;10.42;80.60;97792.88;4142408;28;20615;-86
2023/12/10 08:53:27;;;;;;;6.27;2.23;;;;;;;10.44;81.89;97789.19;4145967;28;20670;-87
2023/12/10 08:55:32;;;;;;;8.40;2.23;;;;;;;10.49;80.60;97778.41;4148191;28;20625;-87
2023/12/10 08:57:35;;;;;;;9.60;2.23;;;;;;;10.52;81.14;97793.84;4145337;28;20661;-86
2023/12/10 08:59:39;;;;;;;9.67;2.03;;;;;;;10.57;81.11;97789.09;4136052;28;21001;-87
2023/12/10 09:01:43;;;;;;;12.17;2.50;;;;;;;10.57;81.62;97783.91;4140330;28;20672;-87
2023/12/10 09:03:47;;;;;;;9.90;2.33;;;;;;;10.57;81.57;97786.50;4154008;28;20673;-86
2023/12/10 09:05:51;;;;;;;8.10;1.93;;;;;;;10.62;81.76;97803.50;4142703;28;20622;-87
2023/12/10 09:07:55;;;;;;;8.27;2.20;;;;;;;10.65;81.83;97807.66;4128680;28;21337;-86
2023/12/10 09:09:59;;;;;;;7.90;2.77;;;;;;;10.69;80.47;97806.47;4162290;28;20642;-86
2023/12/10 09:12:14;;;;;;;13.50;2.77;;;;;;;10.73;80.88;97810.53;4127995;28;20738;-86
2023/12/10 09:14:18;;;;;;;8.10;2.30;;;;;;;10.75;80.56;97816.47;4162989;28;20675;-85
2023/12/10 09:16:22;;;;;;;10.83;1.87;;;;;;;10.75;80.41;97806.88;4143067;28;20634;-85
2023/12/10 09:18:26;;;;;;;9.40;2.77;;;;;;;10.75;79.60;97821.66;4157154;28;21365;-83
2023/12/10 09:20:31;;;;;;;5.73;2.10;;;;;;;10.84;80.18;97832.28;4140246;28;20686;-84
2023/12/10 09:22:35;;;;;;;7.17;2.87;;;;;;;10.86;80.60;97830.38;4155853;28;20621;-85
2023/12/10 09:24:39;;;;;;;8.70;2.20;;;;;;;10.83;79.14;97828.00;4123072;28;20673;-86
2023/12/10 09:26:43;;;;;;;6.33;1.73;;;;;;;10.79;78.74;97839.59;4139960;28;21575;-85
2023/12/10 09:28:48;;;;;;;8.70;1.97;;;;;;;10.77;78.89;97831.06;4126657;28;20639;-85
2023/12/10 09:30:51;;;;;;;10.63;2.03;;;;;;;10.77;79.89;97835.47;4146384;28;21309;-86
2023/12/10 09:32:54;;;;;;;9.10;2.50;;;;;;;10.75;80.86;97842.53;4140370;28;20668;-86
2023/12/10 09:35:00;;;;;;;6.57;1.87;;;;;;;10.78;80.31;97845.78;4139188;28;21200;-86
2023/12/10 09:37:05;;;;;;;9.73;1.87;;;;;;;10.81;80.82;97841.16;4128006;28;20654;-85
2023/12/10 09:39:08;;;;;;;12.10;2.63;;;;;;;10.81;80.02;97848.16;4159706;28;20636;-85
2023/12/10 09:41:12;;;;;;;8.40;1.87;;;;;;;10.88;79.77;97851.97;4142651;28;20619;-85